Nearby METAR Reports

 

ENCN - Kristiansand/Kje, Norway
Distance from station: N 17km
Mise à jour: 10/04/2020 13:20
clair
clair
 Wind from SSO
Vent: SSO 22 km/h
Température: 8°C
Wind Chill: 4°C
Point de rosée: -1°C
Humidité: 53%
Baromètre: 1025 hPa
Clouds: clair
Visibility: 10 km
2020/04/10 11:20 ENCN 101120Z AUTO 21012KT 9999 NCD 08/M01 Q1025
EKSN - Sindal Airport, Denmark
Distance from station: ESE 145km
Mise à jour: 08/04/2020 14:50
NOT Current
clair
clair
 Wind from OSO
Vent: OSO 37 km/h
Température: 16°C
Point de rosée: 2°C
Humidité: 39%
Baromètre: 1023 hPa
Résumé: clair
Visibility: greater than 10 km
2020/04/08 12:50 EKSN 081250Z 25020KT CAVOK 16/02 Q1023
 
EKYT - Alborg, Denmark
Distance from station: SE 153km
Mise à jour: 10/04/2020 13:20
clair
clair
 Wind from O
Vent: O 17 km/h
Température: 9°C
Wind Chill: 7°C
Point de rosée: -1°C
Humidité: 50%
Baromètre: 1026 hPa
Clouds: clair
Visibility: 10 km
2020/04/10 11:20 EKYT 101120Z AUTO 26009KT 240V310 9999 NCD 09/M01 Q1026
ENSN - Skien/Geiterygge, Norway
Distance from station: NE 153km
Mise à jour: 09/11/2015 09:50
NOT Current
clair
clair
 Wind from SSO
Vent: SSO 19 km/h, Rafale: 41 km/h
Température: 7°C
Wind Chill: 4°C
Point de rosée: 3°C
Humidité: 76%
Baromètre: 1000 hPa
Résumé: clair
Visibility: greater than 10 km
2015/11/09 08:50 ENSN 090850Z 20010G22KT 150V240 CAVOK 07/03 Q1000
 
ENZV - Stavanger/Sola(A, Norway
Distance from station: NO 166km
Mise à jour: 10/04/2020 13:20
clair
clair
 Wind from O
Vent: O 20 km/h
Température: 7°C
Wind Chill: 4°C
Point de rosée: -1°C
Humidité: 57%
Baromètre: 1027 hPa
Résumé: clair
Visibility: greater than 10 km
2020/04/10 11:20 ENZV 101120Z 28011KT CAVOK 07/M01 Q1027 NOSIG
ENNO - Notodden, Norway
Distance from station: NNE 182km
Mise à jour: 06/04/2020 11:50
NOT Current
Nearby showers, partiellement nuageux
Nearby showers, partiellement nuageux
 Wind from O
Vent: O 6 km/h
Température: 7°C
Point de rosée: 2°C
Humidité: 71%
Baromètre: 1021 hPa
Résumé: Nearby Showers
Clouds: partiellement nuageux
Visibility: 10 km
Cloud details: partiellement nuageux 853 m
2020/04/06 09:50 ENNO 060950Z 27003KT 9999 VCSH SCT028 07/02 Q1021
 
ENTO - Torp (civ/Nor-Af, Norway
Distance from station: NE 183km
Mise à jour: 10/04/2020 13:20
clair
clair
 Wind from varies
Vent: varies 4 km/h
Température: 9°C
Point de rosée: -7°C
Humidité: 32%
Baromètre: 1025 hPa
Résumé: clair
Visibility: greater than 10 km
2020/04/10 11:20 ENTO 101120Z VRB02KT CAVOK 09/M07 Q1025 NOSIG
EKKA - Karup (dan-Afb), Denmark
Distance from station: SSE 209km
Mise à jour: 10/04/2020 13:20
clair
clair
 Wind from NO
Vent: NO 30 km/h
Température: 9°C
Wind Chill: 5°C
Point de rosée: 0°C
Humidité: 54%
Baromètre: 1027 hPa
Clouds: clair
Visibility: 10 km
2020/04/10 11:20 EKKA 101120Z AUTO 31016KT 280V340 9999 NCD 09/M00 Q1027
 
ENHD - Haugesund/Karmoy, Norway
Distance from station: NO 216km
Mise à jour: 10/04/2020 13:20
Few Clouds
Few Clouds
 Wind from ONO
Vent: ONO 13 km/h
Température: 7°C
Wind Chill: 5°C
Point de rosée: -1°C
Humidité: 57%
Baromètre: 1027 hPa
Clouds: Few Clouds
Visibility: 10 km
Cloud details: Few Clouds 2804 m
2020/04/10 11:20 ENHD 101120Z AUTO 29007KT 9999 FEW092/// 07/M01 Q1027
ENRY - Rygge (nor-Afb), Norway
Distance from station: NE 216km
Mise à jour: 10/04/2020 07:50
NOT Current
nuageux
nuageux
 Wind from varies
Vent: varies 2 km/h
Température: 0°C
Point de rosée: -4°C
Humidité: 75%
Baromètre: 1026 hPa
Clouds: nuageux
Visibility: 10 km
Cloud details: Few Clouds 3658 m
nuageux 4572 m
2020/04/10 05:50 ENRY 100550Z AUTO VRB01KT 9999NDV FEW120/// BKN150/// 00/M04 Q1026
 
ESGP - Goteborg/Save (a, Sweden
Distance from station: E 230km
Mise à jour: 02/01/2017 11:20
NOT Current
clair
clair
 Wind from calm
Vent: calme
Température: -2°C
Point de rosée: -4°C
Humidité: 86%
Baromètre: 1012 hPa
Clouds: clair
Visibility: 10 km
2017/01/02 10:20 ESGP 021020Z AUTO 00000KT 9999 NCD M02/M04 Q1012
EKVJ - Stauning Airport, Denmark
Distance from station: S 233km
Mise à jour: 10/04/2020 12:50
Few Clouds
Few Clouds
 Wind from NO
Vent: NO 24 km/h
Température: 9°C
Wind Chill: 6°C
Point de rosée: 6°C
Humidité: 82%
Baromètre: 1027 hPa
Clouds: Few Clouds
Visibility: 10 km
Cloud details: Few Clouds 762 m
2020/04/10 10:50 EKVJ 101050Z 32013KT 9999 FEW025 09/06 Q1027
 
ENSO - Stord/Soerstokke, Norway
Distance from station: NO 246km
Mise à jour: 07/04/2020 14:50
NOT Current
Few Clouds
Few Clouds
 Wind from S
Vent: S 17 km/h
Température: 11°C
Point de rosée: 3°C
Humidité: 58%
Baromètre: 1029 hPa
Clouds: Few Clouds
Visibility: 10 km
Cloud details: Few Clouds 914 m
2020/04/07 12:50 ENSO 071250Z 19009KT 140V260 9999 FEW030 11/03 Q1029
EKAH - Tirstrup (civ/Mi, Denmark
Distance from station: SE 252km
Mise à jour: 10/04/2020 13:20
Few Clouds
Few Clouds
 Wind from ONO
Vent: ONO 15 km/h
Température: 10°C
Wind Chill: 8°C
Point de rosée: 1°C
Humidité: 54%
Baromètre: 1026 hPa
Clouds: Few Clouds
Visibility: 10 km
Cloud details: Few Clouds 1067 m
2020/04/10 11:20 EKAH 101120Z AUTO 29008KT 260V330 9999NDV FEW035/// 10/01 Q1026
 
ESGT - Trollhattan (pvt, Sweden
Distance from station: E 255km
Mise à jour: 10/04/2020 13:20

 
2020/04/10 11:20 ESGT 101120Z AUTO VRB03GP99KT 9999 NCD 10/M02 Q1024 RERA
ESGG - Goteborg/Landvet, Sweden
Distance from station: E 257km
Mise à jour: 10/04/2020 13:20
clair
clair
 Wind from OSO
Vent: OSO 13 km/h
Température: 10°C
Wind Chill: 8°C
Point de rosée: -3°C
Humidité: 40%
Baromètre: 1024 hPa
Résumé: clair
Visibility: greater than 10 km
2020/04/10 11:20 ESGG 101120Z 25007KT 210V290 CAVOK 10/M03 Q1024
 
EKBI - Billund Airport, Denmark
Distance from station: SSE 269km
Mise à jour: 10/04/2020 13:20
clair
clair
 Wind from ONO
Vent: ONO 22 km/h
Température: 9°C
Wind Chill: 6°C
Point de rosée: 0°C
Humidité: 54%
Baromètre: 1027 hPa
Clouds: clair
Visibility: 10 km
2020/04/10 11:20 EKBI 101120Z AUTO 29012KT 260V330 9999 NCD 09/M00 Q1027
EKHN - Horns Rev B Heli, Denmark
Distance from station: S 274km
Mise à jour: 09/08/2016 14:20
NOT Current
Few Clouds
Few Clouds
 Wind from ONO
Vent: ONO 50 km/h, Rafale: 72 km/h
Température: 14°C
Point de rosée: 10°C
Humidité: 77%
Baromètre: 1018 hPa
Clouds: Few Clouds
Visibility: 10 km
Cloud details: Few Clouds 1158 m
Few Clouds 2438 m
2016/08/09 12:20 EKHN 091220Z AUTO 29027G39KT 270V340 9999NDV FEW038/// FEW080/// 14/10 Q1018
 
ESIB - Satenas (swe-Afb, Sweden
Distance from station: E 277km
Mise à jour: 10/04/2020 13:20
clair
clair
 Wind from N
Vent: N 9 km/h
Température: 9°C
Wind Chill: 7°C
Point de rosée: -1°C
Humidité: 50%
Baromètre: 1024 hPa
Clouds: clair
Visibility: 10 km
2020/04/10 11:20 ESIB 101120Z AUTO 35005KT 320V020 9999 NCD 09/M01 Q1024
EKHR - Horns Rev B Heli, Denmark
Distance from station: S 282km
Mise à jour: 04/10/2016 06:20
NOT Current
clair
clair
 Wind from E
Vent: E 4 km/h
Température: 11°C
Point de rosée: -49°C
Humidité: 0%
Baromètre: 1038 hPa
Clouds: clair
Visibility: 10 km
2016/10/04 04:20 EKHR 040420Z AUTO 08002KT 9999NDV NCD 11/M49 Q1038